Garfield County Regional Airport Rifle US
ICAO: KRIL
IATA: RIL
Category: Medium
Scheduled Services: No

Elevation: 5548 ft
TransAlt. 18000 ft.

Airport Communications:
ASOS:135.275
DENVER CNTR:134.5
CTAF/UNICOM:122.8

KRIL Zoom In..

If you have problems with the map follow the link
https://www.worldairports.se/pages/airport.php?
ICAO=KRIL

Runways:

(A) RW 08 length 7000 ft width 100 ft
---- / hdg 78

(B) RW 26 length 7000 ft width 100 ft
ILS 110.90 / hdg 258

Location; KRIL
Day. 19 / Time. 01.53 Zulu
* Altimeter: 30.48
* Temperature: -08° c. -17.6°f.
* Wind from: 170° Speed 04 kn.
Dewpoint: -14° c.
Visibility: 10 Statute Miles.
Clouds: Clear (automated report).

KRIL 190153Z AUTO 17004KT 10SM CLR M08/M14 A3048 RMK AO2 SLP394 T10831144


Wind From 170°
Speed 04 kn.

 
 
jpsmedia worldairports.se 2020   terms of use